sensor_id;sensor_type;location;lat;lon;timestamp;P1;durP1;ratioP1;P2;durP2;ratioP2
2998;SDS011;1509;51.964;7.628;2023-04-08T00:00:17;12.10;;;9.27;;
2998;SDS011;1509;51.964;7.628;2023-04-08T00:02:42;15.60;;;9.73;;
2998;SDS011;1509;51.964;7.628;2023-04-08T00:05:08;12.73;;;9.67;;
2998;SDS011;1509;51.964;7.628;2023-04-08T00:07:33;13.30;;;10.13;;
2998;SDS011;1509;51.964;7.628;2023-04-08T00:10:00;18.67;;;10.43;;
2998;SDS011;1509;51.964;7.628;2023-04-08T00:12:25;17.40;;;10.80;;
2998;SDS011;1509;51.964;7.628;2023-04-08T00:14:51;13.20;;;11.43;;
2998;SDS011;1509;51.964;7.628;2023-04-08T00:17:17;13.23;;;10.47;;
2998;SDS011;1509;51.964;7.628;2023-04-08T00:19:42;15.20;;;10.07;;
2998;SDS011;1509;51.964;7.628;2023-04-08T00:22:09;10.70;;;9.23;;
2998;SDS011;1509;51.964;7.628;2023-04-08T00:24:35;15.60;;;9.77;;
2998;SDS011;1509;51.964;7.628;2023-04-08T00:27:00;15.17;;;9.80;;
2998;SDS011;1509;51.964;7.628;2023-04-08T00:29:26;11.30;;;8.40;;
2998;SDS011;1509;51.964;7.628;2023-04-08T00:31:53;12.60;;;9.57;;
2998;SDS011;1509;51.964;7.628;2023-04-08T00:34:18;14.90;;;10.33;;
2998;SDS011;1509;51.964;7.628;2023-04-08T00:36:45;18.30;;;11.83;;
2998;SDS011;1509;51.964;7.628;2023-04-08T00:39:12;16.27;;;9.90;;
2998;SDS011;1509;51.964;7.628;2023-04-08T00:41:38;14.17;;;10.10;;
2998;SDS011;1509;51.964;7.628;2023-04-08T00:44:04;16.97;;;9.67;;
2998;SDS011;1509;51.964;7.628;2023-04-08T00:46:32;14.50;;;9.17;;
2998;SDS011;1509;51.964;7.628;2023-04-08T00:49:00;13.10;;;10.17;;
2998;SDS011;1509;51.964;7.628;2023-04-08T00:51:27;11.83;;;9.33;;
2998;SDS011;1509;51.964;7.628;2023-04-08T00:53:53;13.73;;;11.40;;
2998;SDS011;1509;51.964;7.628;2023-04-08T00:56:20;13.37;;;9.73;;
2998;SDS011;1509;51.964;7.628;2023-04-08T00:58:46;13.27;;;10.80;;
2998;SDS011;1509;51.964;7.628;2023-04-08T01:01:21;14.93;;;9.80;;
2998;SDS011;1509;51.964;7.628;2023-04-08T01:03:57;12.70;;;9.37;;
2998;SDS011;1509;51.964;7.628;2023-04-08T01:06:44;15.63;;;11.30;;
2998;SDS011;1509;51.964;7.628;2023-04-08T01:09:23;11.03;;;9.23;;
2998;SDS011;1509;51.964;7.628;2023-04-08T01:11:52;11.67;;;9.70;;
2998;SDS011;1509;51.964;7.628;2023-04-08T01:14:21;13.73;;;9.37;;
2998;SDS011;1509;51.964;7.628;2023-04-08T01:16:50;14.27;;;9.60;;
2998;SDS011;1509;51.964;7.628;2023-04-08T01:19:30;14.97;;;10.60;;
2998;SDS011;1509;51.964;7.628;2023-04-08T01:22:02;16.90;;;10.80;;
2998;SDS011;1509;51.964;7.628;2023-04-08T01:25:04;15.20;;;9.40;;
2998;SDS011;1509;51.964;7.628;2023-04-08T01:27:32;14.53;;;10.53;;
2998;SDS011;1509;51.964;7.628;2023-04-08T01:30:03;15.47;;;8.83;;
2998;SDS011;1509;51.964;7.628;2023-04-08T01:32:31;13.90;;;9.63;;
2998;SDS011;1509;51.964;7.628;2023-04-08T01:34:59;13.27;;;9.23;;
2998;SDS011;1509;51.964;7.628;2023-04-08T01:37:26;12.37;;;7.97;;
2998;SDS011;1509;51.964;7.628;2023-04-08T01:39:53;9.30;;;8.10;;
2998;SDS011;1509;51.964;7.628;2023-04-08T01:42:21;14.43;;;8.80;;
2998;SDS011;1509;51.964;7.628;2023-04-08T01:44:49;12.00;;;8.30;;
2998;SDS011;1509;51.964;7.628;2023-04-08T01:47:16;10.50;;;8.30;;
2998;SDS011;1509;51.964;7.628;2023-04-08T01:49:43;12.57;;;8.40;;
2998;SDS011;1509;51.964;7.628;2023-04-08T01:52:09;11.83;;;8.70;;
2998;SDS011;1509;51.964;7.628;2023-04-08T01:54:36;11.07;;;8.13;;
2998;SDS011;1509;51.964;7.628;2023-04-08T01:57:03;12.73;;;8.60;;
2998;SDS011;1509;51.964;7.628;2023-04-08T01:59:33;14.03;;;9.67;;
2998;SDS011;1509;51.964;7.628;2023-04-08T02:02:00;11.60;;;8.10;;
2998;SDS011;1509;51.964;7.628;2023-04-08T02:04:29;11.37;;;8.23;;
2998;SDS011;1509;51.964;7.628;2023-04-08T02:06:55;13.20;;;9.30;;
2998;SDS011;1509;51.964;7.628;2023-04-08T02:09:21;10.67;;;7.67;;
2998;SDS011;1509;51.964;7.628;2023-04-08T02:11:47;8.87;;;7.97;;
2998;SDS011;1509;51.964;7.628;2023-04-08T02:14:12;15.53;;;8.70;;
2998;SDS011;1509;51.964;7.628;2023-04-08T02:19:17;11.63;;;8.07;;
2998;SDS011;1509;51.964;7.628;2023-04-08T02:21:51;9.83;;;7.57;;
2998;SDS011;1509;51.964;7.628;2023-04-08T02:24:21;13.83;;;8.07;;
2998;SDS011;1509;51.964;7.628;2023-04-08T02:26:48;11.13;;;9.03;;
2998;SDS011;1509;51.964;7.628;2023-04-08T02:29:15;14.63;;;8.23;;
2998;SDS011;1509;51.964;7.628;2023-04-08T02:31:42;10.63;;;8.53;;
2998;SDS011;1509;51.964;7.628;2023-04-08T02:34:09;12.37;;;8.13;;
2998;SDS011;1509;51.964;7.628;2023-04-08T02:36:35;12.97;;;7.50;;
2998;SDS011;1509;51.964;7.628;2023-04-08T02:39:02;8.10;;;6.93;;
2998;SDS011;1509;51.964;7.628;2023-04-08T02:41:28;10.40;;;7.67;;
2998;SDS011;1509;51.964;7.628;2023-04-08T02:43:54;9.23;;;7.73;;
2998;SDS011;1509;51.964;7.628;2023-04-08T02:46:19;13.53;;;7.80;;
2998;SDS011;1509;51.964;7.628;2023-04-08T02:48:45;10.10;;;7.43;;
2998;SDS011;1509;51.964;7.628;2023-04-08T02:51:11;12.30;;;8.33;;
2998;SDS011;1509;51.964;7.628;2023-04-08T02:53:37;10.60;;;7.93;;
2998;SDS011;1509;51.964;7.628;2023-04-08T02:56:03;11.77;;;7.27;;
2998;SDS011;1509;51.964;7.628;2023-04-08T02:58:29;13.17;;;8.87;;
2998;SDS011;1509;51.964;7.628;2023-04-08T03:00:54;9.23;;;7.23;;
2998;SDS011;1509;51.964;7.628;2023-04-08T03:03:20;11.30;;;8.10;;
2998;SDS011;1509;51.964;7.628;2023-04-08T03:05:53;11.47;;;7.87;;
2998;SDS011;1509;51.964;7.628;2023-04-08T03:08:19;12.93;;;8.33;;
2998;SDS011;1509;51.964;7.628;2023-04-08T03:10:45;13.90;;;8.37;;
2998;SDS011;1509;51.964;7.628;2023-04-08T03:13:11;11.83;;;8.93;;
2998;SDS011;1509;51.964;7.628;2023-04-08T03:15:37;11.63;;;8.07;;
2998;SDS011;1509;51.964;7.628;2023-04-08T03:18:02;11.20;;;7.83;;
2998;SDS011;1509;51.964;7.628;2023-04-08T03:20:29;11.00;;;8.13;;
2998;SDS011;1509;51.964;7.628;2023-04-08T03:22:55;10.57;;;7.67;;
2998;SDS011;1509;51.964;7.628;2023-04-08T03:25:20;11.00;;;7.80;;
2998;SDS011;1509;51.964;7.628;2023-04-08T03:27:46;13.90;;;7.67;;
2998;SDS011;1509;51.964;7.628;2023-04-08T03:30:12;9.43;;;7.67;;
2998;SDS011;1509;51.964;7.628;2023-04-08T03:32:37;13.20;;;8.13;;
2998;SDS011;1509;51.964;7.628;2023-04-08T03:35:03;14.27;;;8.90;;
2998;SDS011;1509;51.964;7.628;2023-04-08T03:37:30;11.93;;;8.20;;
2998;SDS011;1509;51.964;7.628;2023-04-08T03:39:56;16.03;;;9.30;;
2998;SDS011;1509;51.964;7.628;2023-04-08T03:42:22;11.90;;;7.80;;
2998;SDS011;1509;51.964;7.628;2023-04-08T03:44:47;10.53;;;8.03;;
2998;SDS011;1509;51.964;7.628;2023-04-08T03:47:16;12.60;;;8.60;;
2998;SDS011;1509;51.964;7.628;2023-04-08T03:49:41;13.33;;;8.07;;
2998;SDS011;1509;51.964;7.628;2023-04-08T03:52:07;10.80;;;8.80;;
2998;SDS011;1509;51.964;7.628;2023-04-08T03:54:33;12.30;;;9.10;;
2998;SDS011;1509;51.964;7.628;2023-04-08T03:56:58;12.03;;;7.00;;
2998;SDS011;1509;51.964;7.628;2023-04-08T03:59:24;9.30;;;7.90;;
2998;SDS011;1509;51.964;7.628;2023-04-08T04:01:49;9.43;;;7.87;;
2998;SDS011;1509;51.964;7.628;2023-04-08T04:04:17;10.60;;;7.47;;
2998;SDS011;1509;51.964;7.628;2023-04-08T04:06:43;8.27;;;6.43;;
2998;SDS011;1509;51.964;7.628;2023-04-08T04:09:09;12.20;;;8.17;;
2998;SDS011;1509;51.964;7.628;2023-04-08T04:11:35;10.07;;;7.20;;
2998;SDS011;1509;51.964;7.628;2023-04-08T04:14:00;9.27;;;8.07;;
2998;SDS011;1509;51.964;7.628;2023-04-08T04:16:26;8.83;;;7.60;;
2998;SDS011;1509;51.964;7.628;2023-04-08T04:18:52;10.27;;;7.40;;
2998;SDS011;1509;51.964;7.628;2023-04-08T04:21:17;9.40;;;7.10;;
2998;SDS011;1509;51.964;7.628;2023-04-08T04:23:43;12.63;;;7.23;;
2998;SDS011;1509;51.964;7.628;2023-04-08T04:26:09;10.30;;;7.57;;
2998;SDS011;1509;51.964;7.628;2023-04-08T04:28:36;9.67;;;6.60;;
2998;SDS011;1509;51.964;7.628;2023-04-08T04:31:02;12.27;;;7.80;;
2998;SDS011;1509;51.964;7.628;2023-04-08T04:33:28;10.50;;;7.97;;
2998;SDS011;1509;51.964;7.628;2023-04-08T04:35:54;10.00;;;8.20;;
2998;SDS011;1509;51.964;7.628;2023-04-08T04:38:20;9.70;;;8.70;;
2998;SDS011;1509;51.964;7.628;2023-04-08T04:40:45;9.97;;;7.53;;
2998;SDS011;1509;51.964;7.628;2023-04-08T04:43:11;15.57;;;8.20;;
2998;SDS011;1509;51.964;7.628;2023-04-08T04:45:37;10.23;;;6.93;;
2998;SDS011;1509;51.964;7.628;2023-04-08T04:48:02;10.50;;;6.67;;
2998;SDS011;1509;51.964;7.628;2023-04-08T04:50:28;11.87;;;7.30;;
2998;SDS011;1509;51.964;7.628;2023-04-08T04:52:53;9.00;;;7.10;;
2998;SDS011;1509;51.964;7.628;2023-04-08T04:55:20;12.73;;;8.30;;
2998;SDS011;1509;51.964;7.628;2023-04-08T04:57:46;10.00;;;6.40;;
2998;SDS011;1509;51.964;7.628;2023-04-08T05:00:12;13.70;;;7.47;;
2998;SDS011;1509;51.964;7.628;2023-04-08T05:02:38;8.87;;;6.67;;
2998;SDS011;1509;51.964;7.628;2023-04-08T05:05:04;9.70;;;7.53;;
2998;SDS011;1509;51.964;7.628;2023-04-08T05:07:30;9.60;;;7.70;;
2998;SDS011;1509;51.964;7.628;2023-04-08T05:09:59;9.67;;;7.53;;
2998;SDS011;1509;51.964;7.628;2023-04-08T05:12:25;9.93;;;7.73;;
2998;SDS011;1509;51.964;7.628;2023-04-08T05:14:51;11.20;;;7.10;;
2998;SDS011;1509;51.964;7.628;2023-04-08T05:17:16;8.97;;;7.20;;
2998;SDS011;1509;51.964;7.628;2023-04-08T05:19:42;10.27;;;7.57;;
2998;SDS011;1509;51.964;7.628;2023-04-08T05:22:08;9.80;;;6.80;;
2998;SDS011;1509;51.964;7.628;2023-04-08T05:24:33;7.60;;;6.40;;
2998;SDS011;1509;51.964;7.628;2023-04-08T05:27:00;8.07;;;6.17;;
2998;SDS011;1509;51.964;7.628;2023-04-08T05:29:25;9.03;;;7.33;;
2998;SDS011;1509;51.964;7.628;2023-04-08T05:31:51;9.83;;;6.90;;
2998;SDS011;1509;51.964;7.628;2023-04-08T05:34:17;10.83;;;7.10;;
2998;SDS011;1509;51.964;7.628;2023-04-08T05:36:47;9.30;;;6.03;;
2998;SDS011;1509;51.964;7.628;2023-04-08T05:39:16;7.97;;;6.30;;
2998;SDS011;1509;51.964;7.628;2023-04-08T05:41:43;9.83;;;6.90;;
2998;SDS011;1509;51.964;7.628;2023-04-08T05:44:09;9.23;;;6.80;;
2998;SDS011;1509;51.964;7.628;2023-04-08T05:46:35;12.60;;;7.50;;
2998;SDS011;1509;51.964;7.628;2023-04-08T05:49:01;7.43;;;5.80;;
2998;SDS011;1509;51.964;7.628;2023-04-08T05:51:27;9.23;;;6.27;;
2998;SDS011;1509;51.964;7.628;2023-04-08T05:53:53;8.83;;;7.93;;
2998;SDS011;1509;51.964;7.628;2023-04-08T05:56:18;9.53;;;7.10;;
2998;SDS011;1509;51.964;7.628;2023-04-08T05:58:44;9.00;;;6.80;;
2998;SDS011;1509;51.964;7.628;2023-04-08T06:01:10;8.83;;;6.80;;
2998;SDS011;1509;51.964;7.628;2023-04-08T06:03:36;11.03;;;6.37;;
2998;SDS011;1509;51.964;7.628;2023-04-08T06:06:02;10.73;;;7.50;;
2998;SDS011;1509;51.964;7.628;2023-04-08T06:08:28;9.23;;;7.30;;
2998;SDS011;1509;51.964;7.628;2023-04-08T06:10:53;12.97;;;6.63;;
2998;SDS011;1509;51.964;7.628;2023-04-08T06:13:19;11.83;;;7.07;;
2998;SDS011;1509;51.964;7.628;2023-04-08T06:15:46;12.03;;;7.00;;
2998;SDS011;1509;51.964;7.628;2023-04-08T06:18:14;8.73;;;6.83;;
2998;SDS011;1509;51.964;7.628;2023-04-08T06:20:41;9.87;;;7.00;;
2998;SDS011;1509;51.964;7.628;2023-04-08T06:23:06;8.33;;;6.50;;
2998;SDS011;1509;51.964;7.628;2023-04-08T06:25:32;7.93;;;6.27;;
2998;SDS011;1509;51.964;7.628;2023-04-08T06:27:58;10.00;;;6.70;;
2998;SDS011;1509;51.964;7.628;2023-04-08T06:30:23;8.27;;;6.73;;
2998;SDS011;1509;51.964;7.628;2023-04-08T06:32:49;8.30;;;6.90;;
2998;SDS011;1509;51.964;7.628;2023-04-08T06:35:15;7.83;;;6.53;;
2998;SDS011;1509;51.964;7.628;2023-04-08T06:37:40;8.90;;;5.83;;
2998;SDS011;1509;51.964;7.628;2023-04-08T06:40:06;9.10;;;5.77;;
2998;SDS011;1509;51.964;7.628;2023-04-08T06:42:32;12.87;;;7.10;;
2998;SDS011;1509;51.964;7.628;2023-04-08T06:44:58;8.43;;;6.60;;
2998;SDS011;1509;51.964;7.628;2023-04-08T06:47:23;9.10;;;6.67;;
2998;SDS011;1509;51.964;7.628;2023-04-08T06:49:49;11.97;;;7.23;;
2998;SDS011;1509;51.964;7.628;2023-04-08T06:52:15;9.93;;;7.03;;
2998;SDS011;1509;51.964;7.628;2023-04-08T06:54:41;8.53;;;6.90;;
2998;SDS011;1509;51.964;7.628;2023-04-08T06:57:07;9.83;;;8.20;;
2998;SDS011;1509;51.964;7.628;2023-04-08T06:59:32;8.70;;;6.83;;
2998;SDS011;1509;51.964;7.628;2023-04-08T07:01:58;9.80;;;6.67;;
2998;SDS011;1509;51.964;7.628;2023-04-08T07:04:24;8.60;;;6.63;;
2998;SDS011;1509;51.964;7.628;2023-04-08T07:06:50;8.13;;;5.80;;
2998;SDS011;1509;51.964;7.628;2023-04-08T07:09:16;11.80;;;7.60;;
2998;SDS011;1509;51.964;7.628;2023-04-08T07:11:41;10.40;;;7.50;;
2998;SDS011;1509;51.964;7.628;2023-04-08T07:14:07;8.40;;;6.50;;
2998;SDS011;1509;51.964;7.628;2023-04-08T07:16:33;8.77;;;6.70;;
2998;SDS011;1509;51.964;7.628;2023-04-08T07:18:58;9.30;;;8.03;;
2998;SDS011;1509;51.964;7.628;2023-04-08T07:21:24;8.57;;;6.70;;
2998;SDS011;1509;51.964;7.628;2023-04-08T07:23:50;10.20;;;6.60;;
2998;SDS011;1509;51.964;7.628;2023-04-08T07:26:15;8.47;;;6.93;;
2998;SDS011;1509;51.964;7.628;2023-04-08T07:28:41;11.90;;;7.13;;
2998;SDS011;1509;51.964;7.628;2023-04-08T07:31:08;10.00;;;7.10;;
2998;SDS011;1509;51.964;7.628;2023-04-08T07:33:34;10.00;;;6.90;;
2998;SDS011;1509;51.964;7.628;2023-04-08T07:36:00;10.43;;;7.67;;
2998;SDS011;1509;51.964;7.628;2023-04-08T07:38:26;9.17;;;7.10;;
2998;SDS011;1509;51.964;7.628;2023-04-08T07:40:51;9.67;;;6.80;;
2998;SDS011;1509;51.964;7.628;2023-04-08T07:43:17;10.17;;;6.90;;
2998;SDS011;1509;51.964;7.628;2023-04-08T07:45:43;10.23;;;6.97;;
2998;SDS011;1509;51.964;7.628;2023-04-08T07:48:08;7.70;;;6.50;;
2998;SDS011;1509;51.964;7.628;2023-04-08T07:50:37;9.47;;;7.47;;
2998;SDS011;1509;51.964;7.628;2023-04-08T07:53:02;10.40;;;7.93;;
2998;SDS011;1509;51.964;7.628;2023-04-08T07:55:32;8.80;;;7.10;;
2998;SDS011;1509;51.964;7.628;2023-04-08T07:57:58;9.33;;;6.43;;
2998;SDS011;1509;51.964;7.628;2023-04-08T08:00:25;13.90;;;7.07;;
2998;SDS011;1509;51.964;7.628;2023-04-08T08:02:51;9.00;;;6.80;;
2998;SDS011;1509;51.964;7.628;2023-04-08T08:05:17;10.63;;;6.73;;
2998;SDS011;1509;51.964;7.628;2023-04-08T08:07:42;9.63;;;7.37;;
2998;SDS011;1509;51.964;7.628;2023-04-08T08:10:08;10.57;;;7.97;;
2998;SDS011;1509;51.964;7.628;2023-04-08T08:12:35;8.83;;;7.10;;
2998;SDS011;1509;51.964;7.628;2023-04-08T08:15:01;11.03;;;7.03;;
2998;SDS011;1509;51.964;7.628;2023-04-08T08:17:27;9.03;;;6.60;;
2998;SDS011;1509;51.964;7.628;2023-04-08T08:19:55;10.67;;;7.00;;
2998;SDS011;1509;51.964;7.628;2023-04-08T08:22:24;8.17;;;6.23;;
2998;SDS011;1509;51.964;7.628;2023-04-08T08:24:56;11.10;;;7.90;;
2998;SDS011;1509;51.964;7.628;2023-04-08T08:27:22;8.83;;;6.80;;
2998;SDS011;1509;51.964;7.628;2023-04-08T08:29:48;9.87;;;6.70;;
2998;SDS011;1509;51.964;7.628;2023-04-08T08:32:14;12.30;;;7.43;;
2998;SDS011;1509;51.964;7.628;2023-04-08T08:34:42;12.10;;;7.23;;
2998;SDS011;1509;51.964;7.628;2023-04-08T08:37:08;12.67;;;7.63;;
2998;SDS011;1509;51.964;7.628;2023-04-08T08:39:33;11.73;;;7.57;;
2998;SDS011;1509;51.964;7.628;2023-04-08T08:41:59;16.47;;;8.20;;
2998;SDS011;1509;51.964;7.628;2023-04-08T08:44:25;9.30;;;6.73;;
2998;SDS011;1509;51.964;7.628;2023-04-08T08:46:51;10.70;;;7.57;;
2998;SDS011;1509;51.964;7.628;2023-04-08T08:49:17;15.37;;;7.83;;
2998;SDS011;1509;51.964;7.628;2023-04-08T08:51:46;9.27;;;7.43;;
2998;SDS011;1509;51.964;7.628;2023-04-08T08:54:13;11.17;;;7.80;;
2998;SDS011;1509;51.964;7.628;2023-04-08T08:56:40;11.33;;;7.43;;
2998;SDS011;1509;51.964;7.628;2023-04-08T08:59:07;10.60;;;8.13;;
2998;SDS011;1509;51.964;7.628;2023-04-08T09:01:38;10.77;;;8.30;;
2998;SDS011;1509;51.964;7.628;2023-04-08T09:04:14;12.50;;;8.60;;
2998;SDS011;1509;51.964;7.628;2023-04-08T09:06:43;12.63;;;8.53;;
2998;SDS011;1509;51.964;7.628;2023-04-08T09:09:10;12.70;;;9.10;;
2998;SDS011;1509;51.964;7.628;2023-04-08T09:11:40;12.73;;;9.40;;
2998;SDS011;1509;51.964;7.628;2023-04-08T09:16:46;12.90;;;9.93;;
2998;SDS011;1509;51.964;7.628;2023-04-08T09:19:12;13.67;;;9.53;;
2998;SDS011;1509;51.964;7.628;2023-04-08T09:21:40;14.27;;;9.50;;
2998;SDS011;1509;51.964;7.628;2023-04-08T09:24:07;14.10;;;10.57;;
2998;SDS011;1509;51.964;7.628;2023-04-08T09:26:51;14.67;;;9.90;;
2998;SDS011;1509;51.964;7.628;2023-04-08T09:29:16;14.83;;;9.60;;
2998;SDS011;1509;51.964;7.628;2023-04-08T09:31:42;14.00;;;9.90;;
2998;SDS011;1509;51.964;7.628;2023-04-08T09:34:17;11.57;;;9.50;;
2998;SDS011;1509;51.964;7.628;2023-04-08T09:36:47;13.70;;;10.37;;
2998;SDS011;1509;51.964;7.628;2023-04-08T09:39:16;12.80;;;9.73;;
2998;SDS011;1509;51.964;7.628;2023-04-08T09:41:42;12.70;;;9.70;;
2998;SDS011;1509;51.964;7.628;2023-04-08T09:44:09;14.40;;;9.87;;
2998;SDS011;1509;51.964;7.628;2023-04-08T09:49:26;14.00;;;10.00;;
2998;SDS011;1509;51.964;7.628;2023-04-08T09:52:23;12.47;;;8.70;;
2998;SDS011;1509;51.964;7.628;2023-04-08T09:54:58;12.73;;;8.13;;
2998;SDS011;1509;51.964;7.628;2023-04-08T09:57:33;17.03;;;10.00;;
2998;SDS011;1509;51.964;7.628;2023-04-08T10:00:32;12.07;;;9.17;;
2998;SDS011;1509;51.964;7.628;2023-04-08T10:05:47;12.57;;;9.60;;
2998;SDS011;1509;51.964;7.628;2023-04-08T10:08:14;12.27;;;9.33;;
2998;SDS011;1509;51.964;7.628;2023-04-08T10:10:40;13.90;;;9.40;;
2998;SDS011;1509;51.964;7.628;2023-04-08T10:13:07;12.73;;;9.60;;
2998;SDS011;1509;51.964;7.628;2023-04-08T10:15:33;13.70;;;9.13;;
2998;SDS011;1509;51.964;7.628;2023-04-08T10:22:59;10.73;;;7.67;;
2998;SDS011;1509;51.964;7.628;2023-04-08T10:25:35;12.07;;;9.27;;
2998;SDS011;1509;51.964;7.628;2023-04-08T10:30:42;10.80;;;8.10;;
2998;SDS011;1509;51.964;7.628;2023-04-08T10:38:34;14.37;;;8.93;;
2998;SDS011;1509;51.964;7.628;2023-04-08T10:40:59;11.17;;;8.13;;
2998;SDS011;1509;51.964;7.628;2023-04-08T10:43:27;11.30;;;9.13;;
2998;SDS011;1509;51.964;7.628;2023-04-08T10:45:56;12.90;;;8.30;;
2998;SDS011;1509;51.964;7.628;2023-04-08T10:48:22;14.17;;;8.67;;
2998;SDS011;1509;51.964;7.628;2023-04-08T10:55:51;12.37;;;9.10;;
2998;SDS011;1509;51.964;7.628;2023-04-08T10:58:16;13.70;;;8.63;;
2998;SDS011;1509;51.964;7.628;2023-04-08T11:00:42;12.97;;;8.70;;
2998;SDS011;1509;51.964;7.628;2023-04-08T11:03:08;11.80;;;7.63;;
2998;SDS011;1509;51.964;7.628;2023-04-08T11:05:35;13.83;;;9.43;;
2998;SDS011;1509;51.964;7.628;2023-04-08T11:08:03;13.20;;;8.93;;
2998;SDS011;1509;51.964;7.628;2023-04-08T11:10:29;10.77;;;8.07;;
2998;SDS011;1509;51.964;7.628;2023-04-08T11:13:00;12.77;;;8.47;;
2998;SDS011;1509;51.964;7.628;2023-04-08T11:15:28;11.30;;;7.60;;
2998;SDS011;1509;51.964;7.628;2023-04-08T11:17:54;12.07;;;9.47;;
2998;SDS011;1509;51.964;7.628;2023-04-08T11:20:20;13.53;;;8.80;;
2998;SDS011;1509;51.964;7.628;2023-04-08T11:22:46;8.40;;;6.87;;
2998;SDS011;1509;51.964;7.628;2023-04-08T11:25:13;12.43;;;8.27;;
2998;SDS011;1509;51.964;7.628;2023-04-08T11:27:38;13.20;;;8.70;;
2998;SDS011;1509;51.964;7.628;2023-04-08T11:30:05;15.40;;;8.57;;
2998;SDS011;1509;51.964;7.628;2023-04-08T11:32:32;13.13;;;8.07;;
2998;SDS011;1509;51.964;7.628;2023-04-08T11:35:00;12.60;;;8.50;;
2998;SDS011;1509;51.964;7.628;2023-04-08T11:37:38;13.47;;;8.90;;
2998;SDS011;1509;51.964;7.628;2023-04-08T11:40:06;14.43;;;10.00;;
2998;SDS011;1509;51.964;7.628;2023-04-08T11:42:33;12.40;;;8.93;;
2998;SDS011;1509;51.964;7.628;2023-04-08T11:44:58;13.63;;;8.30;;
2998;SDS011;1509;51.964;7.628;2023-04-08T11:47:33;12.10;;;9.00;;
2998;SDS011;1509;51.964;7.628;2023-04-08T11:49:59;11.13;;;7.93;;
2998;SDS011;1509;51.964;7.628;2023-04-08T11:55:21;14.00;;;9.20;;
2998;SDS011;1509;51.964;7.628;2023-04-08T11:57:54;12.20;;;8.50;;
2998;SDS011;1509;51.964;7.628;2023-04-08T12:00:21;12.33;;;8.80;;
2998;SDS011;1509;51.964;7.628;2023-04-08T12:02:48;9.97;;;7.93;;
2998;SDS011;1509;51.964;7.628;2023-04-08T12:05:15;11.40;;;8.40;;
2998;SDS011;1509;51.964;7.628;2023-04-08T12:07:41;14.50;;;9.67;;
2998;SDS011;1509;51.964;7.628;2023-04-08T12:10:11;14.93;;;10.13;;
2998;SDS011;1509;51.964;7.628;2023-04-08T12:12:37;13.77;;;9.43;;
2998;SDS011;1509;51.964;7.628;2023-04-08T12:15:03;11.73;;;9.13;;
2998;SDS011;1509;51.964;7.628;2023-04-08T12:17:30;13.63;;;9.33;;
2998;SDS011;1509;51.964;7.628;2023-04-08T12:19:55;12.20;;;9.20;;
2998;SDS011;1509;51.964;7.628;2023-04-08T12:22:21;12.17;;;9.10;;
2998;SDS011;1509;51.964;7.628;2023-04-08T12:24:47;15.00;;;9.17;;
2998;SDS011;1509;51.964;7.628;2023-04-08T12:27:13;13.10;;;9.40;;
2998;SDS011;1509;51.964;7.628;2023-04-08T12:29:39;12.57;;;10.43;;
2998;SDS011;1509;51.964;7.628;2023-04-08T12:32:05;13.77;;;9.30;;
2998;SDS011;1509;51.964;7.628;2023-04-08T12:34:31;16.90;;;10.97;;
2998;SDS011;1509;51.964;7.628;2023-04-08T12:36:57;13.67;;;9.90;;
2998;SDS011;1509;51.964;7.628;2023-04-08T12:39:22;16.30;;;9.67;;
2998;SDS011;1509;51.964;7.628;2023-04-08T12:41:48;14.73;;;9.80;;
2998;SDS011;1509;51.964;7.628;2023-04-08T12:44:14;13.40;;;9.23;;
2998;SDS011;1509;51.964;7.628;2023-04-08T12:46:40;14.80;;;10.60;;
2998;SDS011;1509;51.964;7.628;2023-04-08T12:49:06;13.67;;;9.00;;
2998;SDS011;1509;51.964;7.628;2023-04-08T12:51:32;17.03;;;11.00;;
2998;SDS011;1509;51.964;7.628;2023-04-08T12:53:59;14.57;;;10.03;;
2998;SDS011;1509;51.964;7.628;2023-04-08T12:56:28;12.93;;;9.93;;
2998;SDS011;1509;51.964;7.628;2023-04-08T12:58:54;17.90;;;10.87;;
2998;SDS011;1509;51.964;7.628;2023-04-08T13:01:21;15.17;;;10.27;;
2998;SDS011;1509;51.964;7.628;2023-04-08T13:03:47;17.90;;;12.20;;
2998;SDS011;1509;51.964;7.628;2023-04-08T13:06:13;17.33;;;11.10;;
2998;SDS011;1509;51.964;7.628;2023-04-08T13:08:39;14.37;;;10.50;;
2998;SDS011;1509;51.964;7.628;2023-04-08T13:11:06;16.50;;;11.00;;
2998;SDS011;1509;51.964;7.628;2023-04-08T13:13:32;15.10;;;10.50;;
2998;SDS011;1509;51.964;7.628;2023-04-08T13:15:58;14.83;;;10.33;;
2998;SDS011;1509;51.964;7.628;2023-04-08T13:18:24;14.50;;;10.40;;
2998;SDS011;1509;51.964;7.628;2023-04-08T13:20:49;16.03;;;10.70;;
2998;SDS011;1509;51.964;7.628;2023-04-08T13:23:15;14.47;;;10.30;;
2998;SDS011;1509;51.964;7.628;2023-04-08T13:25:42;17.00;;;10.90;;
2998;SDS011;1509;51.964;7.628;2023-04-08T13:28:09;15.43;;;9.90;;
2998;SDS011;1509;51.964;7.628;2023-04-08T13:30:35;18.30;;;11.10;;
2998;SDS011;1509;51.964;7.628;2023-04-08T13:33:00;15.17;;;10.80;;
2998;SDS011;1509;51.964;7.628;2023-04-08T13:35:26;18.43;;;11.90;;
2998;SDS011;1509;51.964;7.628;2023-04-08T13:37:52;19.57;;;12.10;;
2998;SDS011;1509;51.964;7.628;2023-04-08T13:40:20;15.83;;;9.80;;
2998;SDS011;1509;51.964;7.628;2023-04-08T13:42:46;19.97;;;11.17;;
2998;SDS011;1509;51.964;7.628;2023-04-08T13:45:12;18.97;;;10.97;;
2998;SDS011;1509;51.964;7.628;2023-04-08T13:47:38;21.20;;;11.43;;
2998;SDS011;1509;51.964;7.628;2023-04-08T13:50:05;15.80;;;10.47;;
2998;SDS011;1509;51.964;7.628;2023-04-08T13:52:31;15.00;;;10.80;;
2998;SDS011;1509;51.964;7.628;2023-04-08T13:54:57;17.90;;;11.20;;
2998;SDS011;1509;51.964;7.628;2023-04-08T13:57:23;13.20;;;9.90;;
2998;SDS011;1509;51.964;7.628;2023-04-08T13:59:49;19.63;;;12.50;;
2998;SDS011;1509;51.964;7.628;2023-04-08T14:02:14;16.53;;;10.50;;
2998;SDS011;1509;51.964;7.628;2023-04-08T14:04:43;19.70;;;12.03;;
2998;SDS011;1509;51.964;7.628;2023-04-08T14:07:10;17.53;;;10.90;;
2998;SDS011;1509;51.964;7.628;2023-04-08T14:09:36;16.53;;;11.30;;
2998;SDS011;1509;51.964;7.628;2023-04-08T14:12:02;16.90;;;11.97;;
2998;SDS011;1509;51.964;7.628;2023-04-08T14:14:27;15.13;;;11.40;;
2998;SDS011;1509;51.964;7.628;2023-04-08T14:16:53;15.17;;;10.90;;
2998;SDS011;1509;51.964;7.628;2023-04-08T14:19:19;17.80;;;12.43;;
2998;SDS011;1509;51.964;7.628;2023-04-08T14:21:45;19.77;;;13.00;;
2998;SDS011;1509;51.964;7.628;2023-04-08T14:24:10;18.27;;;12.60;;
2998;SDS011;1509;51.964;7.628;2023-04-08T14:26:36;16.17;;;12.40;;
2998;SDS011;1509;51.964;7.628;2023-04-08T14:29:02;20.37;;;13.87;;
2998;SDS011;1509;51.964;7.628;2023-04-08T14:31:29;21.00;;;13.40;;
2998;SDS011;1509;51.964;7.628;2023-04-08T14:33:56;19.20;;;13.60;;
2998;SDS011;1509;51.964;7.628;2023-04-08T14:36:22;24.47;;;13.90;;
2998;SDS011;1509;51.964;7.628;2023-04-08T14:38:48;23.77;;;14.37;;
2998;SDS011;1509;51.964;7.628;2023-04-08T14:41:16;21.53;;;13.93;;
2998;SDS011;1509;51.964;7.628;2023-04-08T14:43:42;22.07;;;14.43;;
2998;SDS011;1509;51.964;7.628;2023-04-08T14:46:07;20.20;;;14.57;;
2998;SDS011;1509;51.964;7.628;2023-04-08T14:48:33;22.70;;;16.67;;
2998;SDS011;1509;51.964;7.628;2023-04-08T14:50:59;17.97;;;13.77;;
2998;SDS011;1509;51.964;7.628;2023-04-08T14:53:24;23.17;;;14.33;;
2998;SDS011;1509;51.964;7.628;2023-04-08T14:55:51;22.27;;;14.40;;
2998;SDS011;1509;51.964;7.628;2023-04-08T14:58:16;22.87;;;13.47;;
2998;SDS011;1509;51.964;7.628;2023-04-08T15:00:44;20.30;;;13.57;;
2998;SDS011;1509;51.964;7.628;2023-04-08T15:03:12;22.37;;;13.40;;
2998;SDS011;1509;51.964;7.628;2023-04-08T15:05:38;19.50;;;12.37;;
2998;SDS011;1509;51.964;7.628;2023-04-08T15:08:06;20.70;;;12.30;;
2998;SDS011;1509;51.964;7.628;2023-04-08T15:10:35;18.40;;;12.87;;
2998;SDS011;1509;51.964;7.628;2023-04-08T15:13:01;23.20;;;14.10;;
2998;SDS011;1509;51.964;7.628;2023-04-08T15:15:26;21.00;;;13.13;;
2998;SDS011;1509;51.964;7.628;2023-04-08T15:17:52;19.80;;;14.10;;
2998;SDS011;1509;51.964;7.628;2023-04-08T15:20:18;18.97;;;12.47;;
2998;SDS011;1509;51.964;7.628;2023-04-08T15:22:44;18.97;;;13.17;;
2998;SDS011;1509;51.964;7.628;2023-04-08T15:25:10;26.30;;;14.07;;
2998;SDS011;1509;51.964;7.628;2023-04-08T15:27:36;22.53;;;13.20;;
2998;SDS011;1509;51.964;7.628;2023-04-08T15:30:03;20.57;;;14.10;;